Time;durP1;ratioP1;P1;durP2;ratioP2;P2;SDS_P1;SDS_P2;PMS_P1;PMS_P2;Temp;Humidity;BMP_temperature;BMP_pressure;BME280_temperature;BME280_humidity;BME280_pressure;Samples;Min_cycle;Max_cycle;Signal;HPM_P1;HPM_P2
2023/10/22 00:00:28;;;;;;;4.20;3.33;;;9.50;99.90;;;;;;4967163;28;20553;-62
2023/10/22 00:02:56;;;;;;;7.70;3.50;;;9.50;99.90;;;;;;4965682;28;20478;-62
2023/10/22 00:05:25;;;;;;;4.53;3.50;;;9.50;99.90;;;;;;4967693;28;20529;-62
2023/10/22 00:07:53;;;;;;;3.70;3.20;;;9.50;99.90;;;;;;4965679;28;20577;-62
2023/10/22 00:10:21;;;;;;;3.67;3.37;;;9.50;99.90;;;;;;4967295;28;20549;-62
2023/10/22 00:12:50;;;;;;;4.67;3.20;;;9.50;99.90;;;;;;4968296;28;20474;-61
2023/10/22 00:15:18;;;;;;;3.67;3.27;;;9.60;99.90;;;;;;4966482;28;20585;-61
2023/10/22 00:17:47;;;;;;;5.37;3.27;;;9.50;99.90;;;;;;4967170;28;20943;-61
2023/10/22 00:20:15;;;;;;;3.53;3.23;;;9.50;99.90;;;;;;4969649;28;20478;-62
2023/10/22 00:22:43;;;;;;;3.43;3.13;;;9.50;99.90;;;;;;4964392;28;20483;-60
2023/10/22 00:25:11;;;;;;;3.67;3.20;;;9.50;99.90;;;;;;4969163;28;20490;-60
2023/10/22 00:27:39;;;;;;;4.50;3.00;;;9.50;99.90;;;;;;4966866;28;20585;-60
2023/10/22 00:30:09;;;;;;;4.30;3.00;;;9.50;99.90;;;;;;4959576;28;20557;-60
2023/10/22 00:32:37;;;;;;;3.83;3.23;;;9.50;99.90;;;;;;4968070;28;20470;-60
2023/10/22 00:35:05;;;;;;;4.53;3.53;;;9.50;99.90;;;;;;4965292;28;21044;-61
2023/10/22 00:37:34;;;;;;;4.27;3.53;;;9.50;99.90;;;;;;4967979;28;20893;-60
2023/10/22 00:40:03;;;;;;;3.70;3.20;;;9.50;99.90;;;;;;4964696;28;20565;-60
2023/10/22 00:42:31;;;;;;;3.50;3.13;;;9.50;99.90;;;;;;4967615;28;20478;-61
2023/10/22 00:44:59;;;;;;;3.83;3.17;;;9.50;99.90;;;;;;4967855;28;21140;-60
2023/10/22 00:47:29;;;;;;;3.30;3.00;;;9.50;99.90;;;;;;4965473;28;20517;-60
2023/10/22 00:49:58;;;;;;;4.97;3.13;;;9.50;99.90;;;;;;4968517;28;20470;-60
2023/10/22 00:52:28;;;;;;;3.73;3.40;;;9.50;99.90;;;;;;4967717;28;20496;-60
2023/10/22 00:54:56;;;;;;;4.27;3.40;;;9.40;99.90;;;;;;4966399;28;20861;-61
2023/10/22 00:57:25;;;;;;;4.20;3.33;;;9.40;99.90;;;;;;4965980;28;21070;-60
2023/10/22 00:59:54;;;;;;;3.40;3.10;;;9.40;99.90;;;;;;4966406;28;20476;-61
2023/10/22 01:02:24;;;;;;;6.20;3.10;;;9.40;99.90;;;;;;4966962;28;20477;-60
2023/10/22 01:04:53;;;;;;;3.50;3.20;;;9.40;99.90;;;;;;4967409;28;21015;-60
2023/10/22 01:07:21;;;;;;;5.80;3.80;;;9.40;99.90;;;;;;4966583;28;20569;-60
2023/10/22 01:09:50;;;;;;;3.27;2.97;;;9.40;99.90;;;;;;4962485;28;20497;-59
2023/10/22 01:12:18;;;;;;;3.23;2.90;;;9.40;99.90;;;;;;4964618;28;20572;-60
2023/10/22 01:14:45;;;;;;;4.37;3.30;;;9.40;99.90;;;;;;4965990;28;20619;-60
2023/10/22 01:17:13;;;;;;;5.77;3.03;;;9.40;99.90;;;;;;4967733;28;20493;-60
2023/10/22 01:19:41;;;;;;;5.87;3.50;;;9.40;99.90;;;;;;4966723;28;20561;-60
2023/10/22 01:22:11;;;;;;;3.50;3.20;;;9.40;99.90;;;;;;4967973;28;20506;-61
2023/10/22 01:24:40;;;;;;;3.60;3.30;;;9.40;99.90;;;;;;4966028;28;20517;-60
2023/10/22 01:27:08;;;;;;;3.63;3.33;;;9.40;99.90;;;;;;4966880;28;20585;-60
2023/10/22 01:29:36;;;;;;;3.50;3.20;;;9.40;99.90;;;;;;4966275;28;20500;-60
2023/10/22 01:32:04;;;;;;;4.33;2.80;;;9.40;99.90;;;;;;4963987;28;20480;-60
2023/10/22 01:34:32;;;;;;;5.17;3.50;;;9.40;99.90;;;;;;4967228;28;20528;-60
2023/10/22 01:37:00;;;;;;;3.77;3.30;;;9.40;99.90;;;;;;4963644;28;20573;-60
2023/10/22 01:39:28;;;;;;;3.33;3.03;;;9.40;99.90;;;;;;4964569;28;20472;-60
2023/10/22 01:41:58;;;;;;;3.77;3.27;;;9.30;99.90;;;;;;4967996;28;20480;-60
2023/10/22 01:44:26;;;;;;;4.60;3.13;;;9.40;99.90;;;;;;4964258;28;20504;-60
2023/10/22 01:46:54;;;;;;;3.87;3.53;;;9.30;99.90;;;;;;4964810;28;20486;-60
2023/10/22 01:49:22;;;;;;;4.53;3.30;;;9.30;99.90;;;;;;4964370;28;20576;-60
2023/10/22 01:51:50;;;;;;;3.17;2.97;;;9.30;99.90;;;;;;4966830;28;20578;-60
2023/10/22 01:54:18;;;;;;;7.00;3.10;;;9.30;99.90;;;;;;4971160;28;20500;-60
2023/10/22 01:56:46;;;;;;;3.73;2.93;;;9.30;99.90;;;;;;4970587;28;20519;-60
2023/10/22 01:59:15;;;;;;;3.93;2.90;;;9.30;99.90;;;;;;4970797;28;20466;-60
2023/10/22 02:01:43;;;;;;;3.57;3.27;;;9.30;99.90;;;;;;4970692;28;20500;-60
2023/10/22 02:04:11;;;;;;;3.60;2.87;;;9.20;99.90;;;;;;4969568;28;20584;-60
2023/10/22 02:06:39;;;;;;;5.00;3.23;;;9.30;99.90;;;;;;4968385;28;21163;-60
2023/10/22 02:09:08;;;;;;;3.10;2.80;;;9.30;99.90;;;;;;4970140;28;20572;-60
2023/10/22 02:11:36;;;;;;;3.70;3.40;;;9.20;99.90;;;;;;4970484;28;20474;-60
2023/10/22 02:14:04;;;;;;;3.33;2.70;;;9.30;99.90;;;;;;4968014;28;20485;-61
2023/10/22 02:16:33;;;;;;;4.20;3.43;;;9.30;99.90;;;;;;4968209;28;20517;-60
2023/10/22 02:19:01;;;;;;;3.53;2.60;;;9.30;99.90;;;;;;4969261;28;20528;-60
2023/10/22 02:21:29;;;;;;;3.30;3.00;;;9.20;99.90;;;;;;4968041;28;20839;-60
2023/10/22 02:23:57;;;;;;;2.90;2.70;;;9.20;99.90;;;;;;4968724;28;20592;-61
2023/10/22 02:26:25;;;;;;;2.97;2.77;;;9.20;99.90;;;;;;4964947;28;20485;-60
2023/10/22 02:28:53;;;;;;;3.43;3.13;;;9.20;99.90;;;;;;4963907;28;20966;-60
2023/10/22 02:31:21;;;;;;;3.77;3.10;;;9.10;99.90;;;;;;4968738;28;20470;-60
2023/10/22 02:34:02;;;;;;;2.97;2.73;;;9.20;99.90;;;;;;4965635;28;20488;-60
2023/10/22 02:36:30;;;;;;;3.43;3.13;;;9.20;99.90;;;;;;4968732;28;20482;-60
2023/10/22 02:38:57;;;;;;;3.53;2.70;;;9.20;99.90;;;;;;4964591;28;20477;-60
2023/10/22 02:41:26;;;;;;;3.27;2.90;;;9.20;99.90;;;;;;4966394;28;20477;-60
2023/10/22 02:43:54;;;;;;;3.07;2.77;;;9.20;99.90;;;;;;4970795;28;20480;-60
2023/10/22 02:46:22;;;;;;;3.43;2.87;;;9.20;99.90;;;;;;4966599;28;20572;-60
2023/10/22 02:48:51;;;;;;;3.70;3.10;;;9.20;99.90;;;;;;4966999;28;20472;-60
2023/10/22 02:51:19;;;;;;;3.13;2.83;;;9.20;99.90;;;;;;4968735;28;20552;-60
2023/10/22 02:53:47;;;;;;;3.03;2.83;;;9.10;99.90;;;;;;4969755;28;20466;-60
2023/10/22 02:56:15;;;;;;;3.60;3.30;;;9.10;99.90;;;;;;4966638;28;20481;-60
2023/10/22 02:58:43;;;;;;;4.67;3.07;;;9.10;99.90;;;;;;4968346;28;20478;-60
2023/10/22 03:01:12;;;;;;;4.93;3.20;;;9.10;99.90;;;;;;4968756;28;20564;-60
2023/10/22 03:03:40;;;;;;;3.63;3.33;;;9.10;99.90;;;;;;4968495;28;20473;-60
2023/10/22 03:06:12;;;;;;;4.33;3.23;;;9.10;99.90;;;;;;4967113;28;20941;-60
2023/10/22 03:08:41;;;;;;;3.23;2.93;;;9.10;99.90;;;;;;4963356;28;20509;-60
2023/10/22 03:11:16;;;;;;;2.80;2.53;;;9.10;99.90;;;;;;4967896;28;20582;-60
2023/10/22 03:13:44;;;;;;;4.10;3.40;;;9.10;99.90;;;;;;4968613;28;20481;-61
2023/10/22 03:16:14;;;;;;;3.67;3.10;;;9.10;99.90;;;;;;4970087;28;20564;-60
2023/10/22 03:18:44;;;;;;;4.40;3.00;;;9.10;99.90;;;;;;4975064;28;21026;-61
2023/10/22 03:21:14;;;;;;;3.97;2.70;;;9.10;99.90;;;;;;4975056;28;20474;-61
2023/10/22 03:23:46;;;;;;;3.73;2.80;;;9.00;99.90;;;;;;4974316;28;20477;-59
2023/10/22 03:26:16;;;;;;;3.93;2.80;;;9.00;99.90;;;;;;4976618;28;20485;-60
2023/10/22 03:28:44;;;;;;;3.00;2.70;;;9.10;99.90;;;;;;4971930;28;20478;-61
2023/10/22 03:31:13;;;;;;;4.47;2.67;;;9.00;99.90;;;;;;4975599;28;20599;-61
2023/10/22 03:33:41;;;;;;;5.20;3.20;;;9.00;99.90;;;;;;4976323;28;20505;-61
2023/10/22 03:36:09;;;;;;;3.20;2.70;;;9.00;99.90;;;;;;4972432;28;21086;-60
2023/10/22 03:38:39;;;;;;;3.17;2.77;;;9.00;99.90;;;;;;4971388;28;20965;-60
2023/10/22 03:41:07;;;;;;;3.73;2.80;;;9.00;99.90;;;;;;4976361;28;20529;-65
2023/10/22 03:43:35;;;;;;;3.47;3.10;;;9.00;99.90;;;;;;4976136;28;20531;-60
2023/10/22 03:46:03;;;;;;;3.33;2.97;;;9.00;99.90;;;;;;4973910;28;20488;-60
2023/10/22 03:48:32;;;;;;;2.97;2.37;;;9.00;99.90;;;;;;4964049;28;20474;-60
2023/10/22 03:51:00;;;;;;;3.03;2.70;;;9.00;99.90;;;;;;4969138;28;20933;-60
2023/10/22 03:53:28;;;;;;;3.07;2.87;;;9.00;99.90;;;;;;4965545;28;20905;-60
2023/10/22 03:55:58;;;;;;;2.70;2.50;;;9.00;99.90;;;;;;4966329;28;20541;-60
2023/10/22 03:58:26;;;;;;;3.43;2.90;;;9.00;99.90;;;;;;4967100;28;20474;-59
2023/10/22 04:00:55;;;;;;;4.63;2.57;;;9.00;99.90;;;;;;4966577;28;20569;-59
2023/10/22 04:03:23;;;;;;;3.60;3.20;;;9.10;99.90;;;;;;4967180;28;20470;-60
2023/10/22 04:05:56;;;;;;;3.17;2.93;;;9.00;99.90;;;;;;4968454;28;20474;-61
2023/10/22 04:08:25;;;;;;;3.63;2.90;;;9.00;99.90;;;;;;4966795;28;20528;-61
2023/10/22 04:10:54;;;;;;;3.93;3.07;;;9.00;99.90;;;;;;4967823;28;20486;-61
2023/10/22 04:13:23;;;;;;;4.40;3.20;;;9.00;99.90;;;;;;4963388;28;21055;-61
2023/10/22 04:15:51;;;;;;;3.53;2.67;;;9.00;99.90;;;;;;4966630;28;20509;-60
2023/10/22 04:18:20;;;;;;;3.50;2.90;;;9.00;99.90;;;;;;4965059;28;20470;-59
2023/10/22 04:20:50;;;;;;;4.20;2.60;;;9.00;99.90;;;;;;4967183;28;20478;-60
2023/10/22 04:23:19;;;;;;;2.70;2.50;;;9.00;99.90;;;;;;4966832;28;20478;-61
2023/10/22 04:25:47;;;;;;;3.10;2.80;;;9.00;99.90;;;;;;4967239;28;20486;-59
2023/10/22 04:28:15;;;;;;;3.43;2.70;;;9.00;99.90;;;;;;4966762;28;20465;-60
2023/10/22 04:30:45;;;;;;;3.10;2.47;;;9.00;99.90;;;;;;4967273;28;20922;-60
2023/10/22 04:33:14;;;;;;;2.83;2.53;;;9.00;99.90;;;;;;4966826;28;20536;-60
2023/10/22 04:35:42;;;;;;;3.20;2.50;;;9.00;99.90;;;;;;4967704;28;20921;-60
2023/10/22 04:38:13;;;;;;;3.07;2.77;;;9.00;99.90;;;;;;4966035;28;20469;-60
2023/10/22 04:40:41;;;;;;;4.30;2.67;;;9.00;99.90;;;;;;4964968;28;20895;-61
2023/10/22 04:43:09;;;;;;;4.10;2.60;;;9.00;99.90;;;;;;4965928;28;21042;-60
2023/10/22 04:45:37;;;;;;;4.67;2.70;;;8.90;99.90;;;;;;4965408;28;20481;-60
2023/10/22 04:48:07;;;;;;;5.03;2.90;;;8.90;99.90;;;;;;4967437;28;20568;-60
2023/10/22 04:50:38;;;;;;;2.30;2.20;;;9.00;99.90;;;;;;4966107;28;21017;-60
2023/10/22 04:53:06;;;;;;;3.33;2.63;;;8.90;99.90;;;;;;4968073;28;20998;-60
2023/10/22 04:55:34;;;;;;;3.73;2.67;;;8.90;99.90;;;;;;4966917;28;20522;-61
2023/10/22 04:58:02;;;;;;;2.97;2.67;;;8.90;99.90;;;;;;4967945;28;20549;-60
2023/10/22 05:00:30;;;;;;;3.13;2.60;;;8.90;99.90;;;;;;4962867;28;20498;-62
2023/10/22 05:03:00;;;;;;;4.30;2.67;;;8.90;99.90;;;;;;4966490;28;20525;-62
2023/10/22 05:05:29;;;;;;;3.43;2.63;;;8.90;99.90;;;;;;4968121;28;20516;-62
2023/10/22 05:07:57;;;;;;;2.90;2.57;;;8.90;99.90;;;;;;4965005;28;20569;-62
2023/10/22 05:10:25;;;;;;;2.50;2.30;;;8.90;99.90;;;;;;4966621;28;20516;-62
2023/10/22 05:12:54;;;;;;;3.07;2.60;;;8.90;99.90;;;;;;4966015;28;20885;-62
2023/10/22 05:15:22;;;;;;;4.10;2.53;;;8.90;99.90;;;;;;4967225;28;20494;-62
2023/10/22 05:17:50;;;;;;;2.97;2.67;;;8.90;99.90;;;;;;4964466;28;20490;-62
2023/10/22 05:20:19;;;;;;;4.80;3.07;;;8.90;99.90;;;;;;4968879;28;20570;-61
2023/10/22 05:22:48;;;;;;;4.23;2.50;;;8.90;99.90;;;;;;4966998;28;20528;-62
2023/10/22 05:25:16;;;;;;;3.37;2.60;;;8.90;99.90;;;;;;4962723;28;20497;-62
2023/10/22 05:27:44;;;;;;;3.10;2.30;;;8.90;99.90;;;;;;4968103;28;20493;-62
2023/10/22 05:30:13;;;;;;;3.50;2.53;;;8.90;99.90;;;;;;4970314;28;20470;-62
2023/10/22 05:32:42;;;;;;;4.03;2.50;;;8.90;99.90;;;;;;4970071;28;20474;-62
2023/10/22 05:35:10;;;;;;;2.57;2.37;;;8.90;99.90;;;;;;4966286;28;20489;-62
2023/10/22 05:37:38;;;;;;;3.30;2.60;;;8.80;99.90;;;;;;4966479;28;20580;-62
2023/10/22 05:40:09;;;;;;;3.87;2.40;;;8.80;99.90;;;;;;4967514;28;20470;-62
2023/10/22 05:42:37;;;;;;;2.67;2.30;;;8.90;99.90;;;;;;4966423;28;20474;-62
2023/10/22 05:45:05;;;;;;;2.63;2.30;;;8.90;99.90;;;;;;4967753;28;20521;-62
2023/10/22 05:47:33;;;;;;;2.73;2.50;;;8.80;99.90;;;;;;4967460;28;20539;-62
2023/10/22 05:50:02;;;;;;;4.10;2.03;;;8.90;99.90;;;;;;4969081;28;21124;-62
2023/10/22 05:52:30;;;;;;;2.40;2.20;;;8.90;99.90;;;;;;4961278;28;20576;-62
2023/10/22 05:54:58;;;;;;;2.87;2.13;;;8.90;99.90;;;;;;4967405;28;20504;-62
2023/10/22 05:57:28;;;;;;;3.43;2.33;;;8.80;99.90;;;;;;4967128;28;20517;-62
2023/10/22 05:59:58;;;;;;;4.00;2.30;;;8.90;99.90;;;;;;4965582;28;20852;-62
2023/10/22 06:02:26;;;;;;;2.47;2.20;;;8.90;99.90;;;;;;4957484;28;20501;-62
2023/10/22 06:04:54;;;;;;;3.57;2.60;;;8.90;99.90;;;;;;4945232;28;20560;-62
2023/10/22 06:07:22;;;;;;;3.23;1.70;;;8.80;99.90;;;;;;4960596;28;20549;-62
2023/10/22 06:09:50;;;;;;;3.43;2.27;;;8.90;99.90;;;;;;4965383;28;20557;-61
2023/10/22 06:12:18;;;;;;;3.03;2.60;;;8.90;99.90;;;;;;4960828;28;20589;-61
2023/10/22 06:14:47;;;;;;;3.00;2.07;;;8.90;99.90;;;;;;4959777;28;21304;-62
2023/10/22 06:17:16;;;;;;;3.00;2.20;;;8.90;99.90;;;;;;4957729;28;20830;-62
2023/10/22 06:19:44;;;;;;;3.93;2.37;;;8.80;99.90;;;;;;4962798;28;20968;-62
2023/10/22 06:22:12;;;;;;;2.90;2.37;;;8.90;99.90;;;;;;4965577;28;20466;-61
2023/10/22 06:24:41;;;;;;;3.10;2.30;;;8.80;99.90;;;;;;4966757;28;20505;-62
2023/10/22 06:27:09;;;;;;;3.00;2.27;;;8.90;99.90;;;;;;4961835;28;20924;-62
2023/10/22 06:29:38;;;;;;;2.93;2.57;;;8.80;99.90;;;;;;4963809;28;20517;-62
2023/10/22 06:32:07;;;;;;;2.63;2.07;;;8.90;99.90;;;;;;4965118;28;21022;-62
2023/10/22 06:34:35;;;;;;;2.60;2.10;;;8.90;99.90;;;;;;4968726;28;20613;-62
2023/10/22 06:37:04;;;;;;;3.40;2.30;;;8.90;99.90;;;;;;4964578;28;20493;-62
2023/10/22 06:39:32;;;;;;;4.30;2.10;;;8.90;99.90;;;;;;4968659;28;20466;-62
2023/10/22 06:42:01;;;;;;;2.30;2.10;;;9.00;99.90;;;;;;4970823;28;21046;-62
2023/10/22 06:44:29;;;;;;;4.40;2.00;;;9.00;99.90;;;;;;4970752;28;20489;-62
2023/10/22 06:46:57;;;;;;;2.60;1.90;;;9.00;99.90;;;;;;4966804;28;20499;-62
2023/10/22 06:49:26;;;;;;;2.47;2.03;;;9.00;99.90;;;;;;4969510;28;20470;-62
2023/10/22 06:51:54;;;;;;;6.67;2.20;;;9.00;99.90;;;;;;4971466;28;20577;-62
2023/10/22 06:54:22;;;;;;;2.30;1.80;;;9.10;99.90;;;;;;4969356;28;20493;-62
2023/10/22 06:56:50;;;;;;;2.37;2.03;;;9.20;99.90;;;;;;4969594;28;21085;-62
2023/10/22 06:59:18;;;;;;;4.13;1.93;;;9.20;99.90;;;;;;4970574;28;20932;-62
2023/10/22 07:01:46;;;;;;;2.33;2.13;;;9.30;99.90;;;;;;4966654;28;20892;-62
2023/10/22 07:04:15;;;;;;;3.10;2.03;;;9.30;99.90;;;;;;4970283;28;20469;-62
2023/10/22 07:06:45;;;;;;;2.83;2.03;;;9.30;99.90;;;;;;4968625;28;21089;-62
2023/10/22 07:09:13;;;;;;;3.53;2.00;;;9.40;99.90;;;;;;4963728;28;20477;-62
2023/10/22 07:11:43;;;;;;;2.10;1.60;;;9.50;99.90;;;;;;4963132;28;20500;-62
2023/10/22 07:14:12;;;;;;;3.33;2.10;;;9.50;99.90;;;;;;4969401;28;20480;-62
2023/10/22 07:16:40;;;;;;;2.20;1.80;;;9.50;99.90;;;;;;4965469;28;20564;-62
2023/10/22 07:19:08;;;;;;;2.80;2.07;;;9.50;99.90;;;;;;4966557;28;20478;-62
2023/10/22 07:21:36;;;;;;;3.50;2.07;;;9.60;99.90;;;;;;4959814;28;20475;-63
2023/10/22 07:24:07;;;;;;;2.50;2.30;;;9.60;99.90;;;;;;4970029;28;20473;-62
2023/10/22 07:26:35;;;;;;;4.00;2.20;;;9.60;99.90;;;;;;4965369;28;20486;-62
2023/10/22 07:29:03;;;;;;;2.10;1.63;;;9.60;99.90;;;;;;4965891;28;20509;-62
2023/10/22 07:31:31;;;;;;;4.57;2.27;;;9.60;99.90;;;;;;4963409;28;20924;-62
2023/10/22 07:33:59;;;;;;;2.00;1.80;;;9.60;99.90;;;;;;4967590;28;20478;-62
2023/10/22 07:36:27;;;;;;;2.60;2.40;;;9.60;99.90;;;;;;4963240;28;20545;-62
2023/10/22 07:38:55;;;;;;;3.53;2.13;;;9.70;99.90;;;;;;4968559;28;20489;-62
2023/10/22 07:41:25;;;;;;;3.27;1.93;;;9.70;99.90;;;;;;4967542;28;20470;-63
2023/10/22 07:43:53;;;;;;;3.00;1.73;;;9.70;99.90;;;;;;4968598;28;20474;-61
2023/10/22 07:46:21;;;;;;;2.73;2.10;;;9.70;99.90;;;;;;4957527;28;20490;-61
2023/10/22 07:48:49;;;;;;;3.00;1.80;;;9.80;99.90;;;;;;4964601;28;20470;-61
2023/10/22 07:51:18;;;;;;;2.60;1.80;;;9.80;99.90;;;;;;4964563;28;20484;-61
2023/10/22 07:53:47;;;;;;;3.70;1.70;;;9.90;99.90;;;;;;4966185;28;20591;-60
2023/10/22 07:56:17;;;;;;;4.50;2.43;;;9.90;99.90;;;;;;4964831;28;20489;-61
2023/10/22 07:58:48;;;;;;;2.97;2.00;;;10.00;99.90;;;;;;4964450;28;21067;-61
2023/10/22 08:01:16;;;;;;;4.27;2.20;;;10.10;99.90;;;;;;4966696;28;20557;-61
2023/10/22 08:03:44;;;;;;;3.60;2.30;;;10.10;99.90;;;;;;4965052;28;20471;-61
2023/10/22 08:06:12;;;;;;;2.20;1.90;;;10.20;99.90;;;;;;4961167;28;20515;-61
2023/10/22 08:08:40;;;;;;;2.90;2.20;;;10.20;99.90;;;;;;4964523;28;20474;-61
2023/10/22 08:11:08;;;;;;;2.70;1.90;;;10.30;99.90;;;;;;4963430;28;20466;-61
2023/10/22 08:13:36;;;;;;;3.53;2.27;;;10.30;99.90;;;;;;4943129;28;20493;-60
2023/10/22 08:16:06;;;;;;;1.93;1.60;;;10.30;99.90;;;;;;4954905;28;21070;-60
2023/10/22 08:18:35;;;;;;;4.03;2.03;;;10.30;99.90;;;;;;4954063;28;20493;-59
2023/10/22 08:21:03;;;;;;;3.90;2.23;;;10.40;99.90;;;;;;4954708;28;21360;-59
2023/10/22 08:23:32;;;;;;;3.43;1.80;;;10.40;99.90;;;;;;4954595;28;20554;-59
2023/10/22 08:26:00;;;;;;;2.03;1.80;;;10.40;99.90;;;;;;4954875;28;21497;-60
2023/10/22 08:28:28;;;;;;;2.57;1.90;;;10.50;99.90;;;;;;4958543;28;20489;-60
2023/10/22 08:30:56;;;;;;;2.30;1.60;;;10.50;99.90;;;;;;4959148;28;20474;-59
2023/10/22 08:33:25;;;;;;;2.50;1.73;;;10.60;99.90;;;;;;4954523;28;20576;-60
2023/10/22 08:35:53;;;;;;;2.50;1.90;;;10.60;99.90;;;;;;4959725;28;20481;-59
2023/10/22 08:38:21;;;;;;;1.97;1.87;;;10.60;99.90;;;;;;4958052;28;20470;-59
2023/10/22 08:40:52;;;;;;;6.80;2.50;;;10.70;99.90;;;;;;4954951;28;20485;-61
2023/10/22 08:43:20;;;;;;;3.13;2.13;;;10.70;99.90;;;;;;4942656;28;20631;-61
2023/10/22 08:45:49;;;;;;;2.27;1.83;;;10.80;99.90;;;;;;4957192;28;20525;-61
2023/10/22 08:48:18;;;;;;;3.03;2.17;;;10.80;99.90;;;;;;4955191;28;20477;-60
2023/10/22 08:50:48;;;;;;;3.40;1.70;;;11.00;99.90;;;;;;4949427;28;20553;-59
2023/10/22 08:53:16;;;;;;;2.63;2.37;;;11.00;99.90;;;;;;4951660;28;20494;-60
2023/10/22 08:55:46;;;;;;;4.20;2.30;;;11.10;99.90;;;;;;4956808;28;20513;-60
2023/10/22 08:58:16;;;;;;;2.53;2.00;;;11.20;99.90;;;;;;4954891;28;20470;-59
2023/10/22 09:00:46;;;;;;;2.00;1.80;;;11.20;99.90;;;;;;4955360;28;20854;-59
2023/10/22 09:03:14;;;;;;;4.03;2.23;;;11.20;99.90;;;;;;4952976;28;20498;-59
2023/10/22 09:05:43;;;;;;;3.30;2.20;;;11.30;99.90;;;;;;4956253;28;20500;-60
2023/10/22 09:08:13;;;;;;;3.80;1.70;;;11.30;99.90;;;;;;4950591;28;20501;-59
2023/10/22 09:10:41;;;;;;;3.10;1.97;;;11.30;99.90;;;;;;4958901;28;20592;-60
2023/10/22 09:13:15;;;;;;;2.50;1.83;;;11.30;99.90;;;;;;4953761;28;21090;-59
2023/10/22 09:15:44;;;;;;;5.20;2.23;;;11.40;99.90;;;;;;4954122;28;21501;-59
2023/10/22 09:18:13;;;;;;;2.80;1.50;;;11.40;99.90;;;;;;4947794;28;20564;-60
2023/10/22 09:20:42;;;;;;;1.70;1.60;;;11.40;99.90;;;;;;4954436;28;20485;-60
2023/10/22 09:23:16;;;;;;;2.70;1.70;;;11.50;99.90;;;;;;4954152;28;20553;-60
2023/10/22 09:25:45;;;;;;;2.17;1.80;;;11.50;99.90;;;;;;4947426;28;21051;-60
2023/10/22 09:28:20;;;;;;;2.20;1.60;;;11.60;99.90;;;;;;4949672;28;20628;-59
2023/10/22 09:30:48;;;;;;;3.00;1.73;;;11.60;99.90;;;;;;4952770;28;20565;-59
2023/10/22 09:33:19;;;;;;;2.43;1.70;;;11.70;99.90;;;;;;4945995;28;20501;-59
2023/10/22 09:36:01;;;;;;;4.50;2.07;;;11.70;99.90;;;;;;4950729;28;20493;-59
2023/10/22 09:38:44;;;;;;;3.90;2.10;;;11.70;99.90;;;;;;4943355;28;20497;-59
2023/10/22 09:41:13;;;;;;;4.07;2.00;;;11.70;99.90;;;;;;4952464;28;20473;-58
2023/10/22 09:43:41;;;;;;;2.53;2.23;;;11.80;99.90;;;;;;4945792;28;20540;-58
2023/10/22 09:46:11;;;;;;;3.80;2.20;;;11.80;99.90;;;;;;4944184;28;20530;-60
2023/10/22 09:48:43;;;;;;;2.30;1.80;;;11.90;99.90;;;;;;4948312;28;20477;-58
2023/10/22 09:51:15;;;;;;;2.03;1.83;;;11.90;99.90;;;;;;4945993;28;24092;-59
2023/10/22 09:53:52;;;;;;;2.17;1.97;;;11.90;99.90;;;;;;4947252;28;20501;-59
2023/10/22 09:56:22;;;;;;;5.00;2.50;;;11.90;99.90;;;;;;4947046;28;20965;-59
2023/10/22 09:58:54;;;;;;;4.27;2.03;;;11.90;99.90;;;;;;4950825;28;20725;-61
2023/10/22 10:01:24;;;;;;;3.90;2.20;;;11.90;99.90;;;;;;4946975;28;21071;-58
2023/10/22 10:03:54;;;;;;;2.33;2.10;;;11.90;99.90;;;;;;4950752;28;21217;-60
2023/10/22 10:06:26;;;;;;;2.80;1.97;;;11.90;99.90;;;;;;4949364;28;21019;-59
2023/10/22 10:08:55;;;;;;;2.10;2.00;;;11.90;99.90;;;;;;4949262;28;20466;-59
2023/10/22 10:11:24;;;;;;;5.27;2.50;;;11.90;99.90;;;;;;4950832;28;20470;-59
2023/10/22 10:13:52;;;;;;;2.33;2.20;;;11.90;99.90;;;;;;4940219;28;20946;-60
2023/10/22 10:16:24;;;;;;;3.57;2.50;;;11.90;99.90;;;;;;4952993;28;20593;-58
2023/10/22 10:19:03;;;;;;;2.93;2.60;;;11.90;99.90;;;;;;4950793;28;20484;-59
2023/10/22 10:21:44;;;;;;;2.80;2.33;;;11.90;99.90;;;;;;4952989;28;20513;-59
2023/10/22 10:24:22;;;;;;;3.20;2.63;;;11.90;99.90;;;;;;4955137;28;20493;-60
2023/10/22 10:26:55;;;;;;;2.60;2.40;;;11.80;99.90;;;;;;4947731;28;20505;-59
2023/10/22 10:29:24;;;;;;;2.90;2.60;;;11.90;99.90;;;;;;4955479;28;20483;-59
2023/10/22 10:31:54;;;;;;;3.07;2.70;;;11.90;99.90;;;;;;4957115;28;20508;-59
2023/10/22 10:34:27;;;;;;;3.70;2.90;;;11.90;99.90;;;;;;4951608;28;20493;-59
2023/10/22 10:36:56;;;;;;;2.97;2.77;;;11.90;99.90;;;;;;4946737;28;20773;-60
2023/10/22 10:39:46;;;;;;;3.33;3.03;;;11.90;99.90;;;;;;4952344;28;20482;-62
2023/10/22 10:42:36;;;;;;;3.10;2.73;;;11.90;99.90;;;;;;4951509;28;20501;-61
2023/10/22 10:45:08;;;;;;;2.90;2.70;;;11.90;99.90;;;;;;4956241;28;20577;-60
2023/10/22 10:47:37;;;;;;;2.80;2.60;;;12.00;99.90;;;;;;4951046;28;20490;-60
2023/10/22 10:50:07;;;;;;;3.10;2.80;;;12.00;99.90;;;;;;4951982;28;20481;-59
2023/10/22 10:52:57;;;;;;;3.00;2.80;;;12.00;99.90;;;;;;4953485;28;20473;-59
2023/10/22 10:55:33;;;;;;;3.67;2.70;;;12.10;99.90;;;;;;4953948;28;20941;-59
2023/10/22 10:58:03;;;;;;;3.30;2.53;;;12.10;99.90;;;;;;4949744;28;20872;-59
2023/10/22 11:00:32;;;;;;;3.33;2.70;;;12.10;99.90;;;;;;4949472;28;20477;-59
2023/10/22 11:03:02;;;;;;;2.40;2.20;;;12.10;99.90;;;;;;4953000;28;21104;-60
2023/10/22 11:05:36;;;;;;;2.73;2.53;;;12.10;99.90;;;;;;4949654;28;21062;-62
2023/10/22 11:08:05;;;;;;;2.10;2.00;;;12.10;99.90;;;;;;4954496;28;20823;-60
2023/10/22 11:10:35;;;;;;;6.33;2.30;;;12.10;99.90;;;;;;4958868;28;20520;-60
2023/10/22 11:13:04;;;;;;;5.03;2.50;;;12.10;99.90;;;;;;4956941;28;21023;-60
2023/10/22 11:15:33;;;;;;;4.00;2.47;;;12.00;99.90;;;;;;4960425;28;21030;-60
2023/10/22 11:18:02;;;;;;;3.83;2.37;;;12.00;99.90;;;;;;4956793;28;20477;-59
2023/10/22 11:20:30;;;;;;;2.97;2.70;;;12.10;99.90;;;;;;4952148;28;20479;-60
2023/10/22 11:22:58;;;;;;;2.73;2.53;;;12.10;99.90;;;;;;4953165;28;20478;-59
2023/10/22 11:25:28;;;;;;;2.43;2.30;;;12.10;99.90;;;;;;4956015;28;20502;-60
2023/10/22 11:27:58;;;;;;;3.00;2.80;;;12.10;99.90;;;;;;4954761;28;20486;-60
2023/10/22 11:30:34;;;;;;;4.60;2.70;;;12.20;99.90;;;;;;4952484;28;20609;-60
2023/10/22 11:33:03;;;;;;;2.80;2.70;;;12.20;99.90;;;;;;4954863;28;20478;-59
2023/10/22 11:35:31;;;;;;;3.30;3.10;;;12.20;99.90;;;;;;4956267;28;20569;-59
2023/10/22 11:38:02;;;;;;;3.50;3.20;;;12.30;99.90;;;;;;4956269;28;20999;-60
2023/10/22 11:40:34;;;;;;;4.00;3.00;;;12.30;99.90;;;;;;4950400;28;20559;-60
2023/10/22 11:43:14;;;;;;;3.70;3.50;;;12.30;99.90;;;;;;4958668;28;20838;-60
2023/10/22 11:45:51;;;;;;;2.77;2.57;;;12.30;99.90;;;;;;4958030;28;20917;-62
2023/10/22 11:48:20;;;;;;;3.23;3.00;;;12.40;99.90;;;;;;4952586;28;20974;-62
2023/10/22 11:50:50;;;;;;;3.50;3.20;;;12.50;99.90;;;;;;4954115;28;21034;-62
2023/10/22 11:53:18;;;;;;;3.20;2.90;;;12.60;99.90;;;;;;4950275;28;20470;-59
2023/10/22 11:55:47;;;;;;;3.50;3.20;;;12.70;99.90;;;;;;4948426;28;20500;-59
2023/10/22 11:58:20;;;;;;;3.50;3.20;;;12.70;99.90;;;;;;4956262;28;20510;-59
2023/10/22 12:00:48;;;;;;;3.37;3.07;;;12.70;99.90;;;;;;4954203;28;20504;-60
2023/10/22 12:03:17;;;;;;;4.07;3.20;;;12.70;99.90;;;;;;4952879;28;20907;-59
2023/10/22 12:05:45;;;;;;;3.10;2.90;;;12.70;99.90;;;;;;4952074;28;20499;-60
2023/10/22 12:08:13;;;;;;;3.20;3.00;;;12.80;99.90;;;;;;4951868;28;20489;-59
2023/10/22 12:10:41;;;;;;;3.00;2.70;;;12.90;99.90;;;;;;4952892;28;20481;-59
2023/10/22 12:13:10;;;;;;;4.40;3.13;;;12.90;99.90;;;;;;4950954;28;20474;-59
2023/10/22 12:15:40;;;;;;;5.03;3.57;;;12.90;99.90;;;;;;4953240;28;20525;-59
2023/10/22 12:18:09;;;;;;;3.33;3.10;;;12.90;99.90;;;;;;4953296;28;20486;-59
2023/10/22 12:20:38;;;;;;;2.83;2.63;;;12.90;99.90;;;;;;4952421;28;20470;-60
2023/10/22 12:23:10;;;;;;;2.63;2.43;;;12.90;99.90;;;;;;4951763;28;20561;-60
2023/10/22 12:25:38;;;;;;;5.70;3.47;;;12.80;99.90;;;;;;4945029;28;21036;-60
2023/10/22 12:28:07;;;;;;;4.63;2.80;;;12.90;99.90;;;;;;4945883;28;20851;-60
2023/10/22 12:30:35;;;;;;;3.43;2.43;;;12.80;99.90;;;;;;4943039;28;20471;-60
2023/10/22 12:33:05;;;;;;;2.30;2.10;;;12.80;99.90;;;;;;4950034;28;27719;-60
2023/10/22 12:35:33;;;;;;;4.37;2.20;;;12.90;99.90;;;;;;4951397;28;20499;-60
2023/10/22 12:38:01;;;;;;;2.50;2.30;;;13.10;99.90;;;;;;4954561;28;20470;-59
2023/10/22 12:40:29;;;;;;;2.77;2.10;;;13.30;99.90;;;;;;4953218;28;20483;-60
2023/10/22 12:42:57;;;;;;;2.43;1.87;;;13.50;99.90;;;;;;4953223;28;20544;-59
2023/10/22 12:45:28;;;;;;;2.43;2.07;;;13.60;99.90;;;;;;4955656;28;20868;-60
2023/10/22 12:47:56;;;;;;;4.77;2.17;;;13.60;99.90;;;;;;4953801;28;20489;-60
2023/10/22 12:50:25;;;;;;;2.00;1.90;;;13.60;99.90;;;;;;4953902;28;20509;-59
2023/10/22 12:52:53;;;;;;;2.20;2.00;;;13.60;99.90;;;;;;4948337;28;20540;-59
2023/10/22 12:55:21;;;;;;;3.60;2.10;;;13.70;99.90;;;;;;4951728;28;20927;-59
2023/10/22 12:57:49;;;;;;;1.97;1.80;;;13.80;99.90;;;;;;4945831;28;20495;-59
2023/10/22 13:00:17;;;;;;;2.23;2.00;;;14.00;99.90;;;;;;4950275;28;20529;-60
2023/10/22 13:02:45;;;;;;;1.87;1.77;;;14.30;99.90;;;;;;4950036;28;20483;-60